Time;durP1;ratioP1;P1;durP2;ratioP2;P2;SDS_P1;SDS_P2;PMS_P1;PMS_P2;Temp;Humidity;BMP_temperature;BMP_pressure;BME280_temperature;BME280_humidity;BME280_pressure;Samples;Min_cycle;Max_cycle;Signal;HPM_P1;HPM_P2
2024/02/24 00:01:24;;;;;;;5.43;2.63;;;;;;;5.08;78.69;98932.50;5026504;28;20662;-70
2024/02/24 00:03:51;;;;;;;5.17;2.70;;;;;;;5.11;78.93;98934.94;5025662;28;20616;-70
2024/02/24 00:06:17;;;;;;;7.90;2.53;;;;;;;5.09;78.83;98927.13;5025039;28;20572;-70
2024/02/24 00:08:44;;;;;;;2.27;1.60;;;;;;;5.05;78.89;98928.28;5023968;28;20235;-70
2024/02/24 00:11:10;;;;;;;5.83;2.60;;;;;;;5.05;79.22;98923.00;5027443;28;20617;-71
2024/02/24 00:13:37;;;;;;;3.83;2.20;;;;;;;5.03;79.23;98924.06;5024035;28;20206;-70
2024/02/24 00:16:04;;;;;;;4.17;1.20;;;;;;;5.01;79.31;98926.81;5023974;28;20293;-71
2024/02/24 00:18:33;;;;;;;2.73;1.00;;;;;;;5.03;78.96;98926.69;5023544;28;20241;-71
2024/02/24 00:20:59;;;;;;;4.97;1.67;;;;;;;5.05;78.96;98927.44;5024686;28;20658;-70
2024/02/24 00:23:26;;;;;;;2.80;1.80;;;;;;;5.02;79.01;98935.53;5021828;28;20293;-70
2024/02/24 00:25:52;;;;;;;3.27;1.13;;;;;;;5.01;79.09;98931.25;5024275;28;20677;-71
2024/02/24 00:28:19;;;;;;;3.63;1.67;;;;;;;4.98;79.38;98928.81;5025215;28;20222;-70
2024/02/24 00:30:45;;;;;;;2.53;1.13;;;;;;;4.99;79.30;98934.00;5025105;28;20222;-70
2024/02/24 00:33:12;;;;;;;3.37;1.10;;;;;;;4.97;79.61;98929.75;5030881;28;20211;-70
2024/02/24 00:35:39;;;;;;;2.90;1.40;;;;;;;4.95;79.41;98936.94;5025453;28;20203;-70
2024/02/24 00:38:06;;;;;;;2.17;1.30;;;;;;;4.94;80.17;98932.59;5029456;28;20252;-70
2024/02/24 00:40:33;;;;;;;2.63;1.13;;;;;;;4.90;79.80;98937.22;5024581;28;20210;-70
2024/02/24 00:42:59;;;;;;;2.87;0.87;;;;;;;4.92;79.77;98937.97;5023338;28;20203;-70
2024/02/24 00:45:25;;;;;;;3.30;0.90;;;;;;;4.89;80.10;98939.03;5025758;28;20360;-69
2024/02/24 00:47:52;;;;;;;3.00;1.13;;;;;;;4.89;79.36;98938.19;5024491;28;20218;-70
2024/02/24 00:50:18;;;;;;;4.90;1.30;;;;;;;4.87;79.71;98935.63;5025884;28;20206;-70
2024/02/24 00:52:46;;;;;;;4.33;1.80;;;;;;;4.84;79.99;98942.91;5024611;28;20202;-70
2024/02/24 00:55:12;;;;;;;4.33;1.70;;;;;;;4.83;79.96;98946.53;5023313;28;20198;-70
2024/02/24 00:57:39;;;;;;;2.03;1.00;;;;;;;4.81;79.86;98941.34;5022941;28;20222;-70
2024/02/24 01:00:07;;;;;;;3.03;1.20;;;;;;;4.82;80.21;98943.03;5024878;28;20206;-70
2024/02/24 01:02:33;;;;;;;3.00;1.00;;;;;;;4.85;79.84;98945.44;5025016;28;20717;-70
2024/02/24 01:04:59;;;;;;;3.60;1.30;;;;;;;4.85;79.66;98942.81;5024642;28;20704;-70
2024/02/24 01:07:26;;;;;;;2.03;0.97;;;;;;;4.82;79.65;98936.91;5024646;28;20238;-69
2024/02/24 01:09:54;;;;;;;3.37;0.87;;;;;;;4.80;79.91;98929.09;5022859;28;20229;-70
2024/02/24 01:12:20;;;;;;;2.60;1.07;;;;;;;4.76;80.51;98930.25;5026550;28;20222;-70
2024/02/24 01:14:47;;;;;;;3.37;1.03;;;;;;;4.75;80.24;98933.00;5024859;28;20217;-69
2024/02/24 01:17:14;;;;;;;2.17;0.90;;;;;;;4.76;80.21;98934.69;5025175;28;20237;-70
2024/02/24 01:19:40;;;;;;;2.10;0.97;;;;;;;4.77;80.00;98929.31;5023215;28;20640;-70
2024/02/24 01:22:07;;;;;;;3.03;2.10;;;;;;;4.75;79.94;98920.66;5023974;28;20643;-69
2024/02/24 01:24:33;;;;;;;1.27;0.80;;;;;;;4.79;79.66;98927.41;5022918;28;20209;-69
2024/02/24 01:27:01;;;;;;;3.00;1.37;;;;;;;4.79;79.81;98927.41;5024920;28;20577;-69
2024/02/24 01:29:27;;;;;;;2.57;1.40;;;;;;;4.75;80.00;98923.28;5025215;28;20838;-70
2024/02/24 01:31:54;;;;;;;1.90;0.90;;;;;;;4.74;79.88;98916.31;5024798;28;20819;-70
2024/02/24 01:34:20;;;;;;;4.30;0.87;;;;;;;4.74;80.09;98916.31;5021229;28;20206;-70
2024/02/24 01:36:47;;;;;;;1.33;0.90;;;;;;;4.75;79.94;98906.63;5018955;28;20211;-70
2024/02/24 01:39:13;;;;;;;3.47;1.10;;;;;;;4.74;79.90;98910.19;5024723;28;20271;-70
2024/02/24 01:41:40;;;;;;;1.43;1.00;;;;;;;4.76;79.90;98909.16;5023598;28;20202;-69
2024/02/24 01:44:07;;;;;;;4.70;1.70;;;;;;;4.77;79.62;98917.91;5027644;28;20217;-70
2024/02/24 01:46:34;;;;;;;2.30;0.70;;;;;;;4.77;79.83;98920.56;5024965;28;20209;-70
2024/02/24 01:49:00;;;;;;;1.77;0.90;;;;;;;4.72;80.02;98927.91;5025272;28;20209;-70
2024/02/24 01:51:27;;;;;;;2.37;0.83;;;;;;;4.75;79.88;98925.94;5024262;28;20222;-70
2024/02/24 01:53:54;;;;;;;4.23;2.30;;;;;;;4.73;79.83;98927.81;5021422;28;20633;-70
2024/02/24 01:56:22;;;;;;;3.17;1.00;;;;;;;4.73;79.67;98913.78;5022699;28;20206;-70
2024/02/24 01:58:49;;;;;;;4.13;1.83;;;;;;;4.71;79.88;98911.25;5022034;28;20252;-70
2024/02/24 02:01:17;;;;;;;3.97;0.97;;;;;;;4.70;79.83;98903.44;5024197;28;20198;-69
2024/02/24 02:03:44;;;;;;;2.23;0.73;;;;;;;4.70;79.89;98911.34;5025054;28;20206;-70
2024/02/24 02:06:12;;;;;;;1.70;0.60;;;;;;;4.67;80.26;98907.13;5023532;28;20210;-70
2024/02/24 02:08:38;;;;;;;3.40;0.90;;;;;;;4.64;80.10;98917.91;5023166;28;20227;-70
2024/02/24 02:11:05;;;;;;;2.23;0.60;;;;;;;4.61;80.30;98912.81;5022710;28;20218;-70
2024/02/24 02:13:31;;;;;;;3.30;0.60;;;;;;;4.64;80.29;98920.53;5019317;28;20206;-70
2024/02/24 02:15:59;;;;;;;3.73;0.90;;;;;;;4.64;79.76;98912.63;5014988;28;20206;-69
2024/02/24 02:18:26;;;;;;;2.97;0.90;;;;;;;4.65;80.04;98913.47;5027739;28;20625;-70
2024/02/24 02:20:53;;;;;;;3.40;1.07;;;;;;;4.63;80.15;98910.94;5030112;28;20551;-69
2024/02/24 02:23:21;;;;;;;1.73;0.70;;;;;;;4.68;79.97;98919.34;5028280;28;20206;-70
2024/02/24 02:25:47;;;;;;;4.13;0.90;;;;;;;4.63;79.82;98920.63;5029195;28;20206;-70
2024/02/24 02:28:14;;;;;;;3.80;1.03;;;;;;;4.62;79.92;98913.66;5026199;28;20226;-70
2024/02/24 02:30:40;;;;;;;2.33;0.73;;;;;;;4.59;80.16;98916.50;5027957;28;20216;-70
2024/02/24 02:33:08;;;;;;;1.23;0.60;;;;;;;4.60;80.20;98913.78;5028816;28;20569;-70
2024/02/24 02:35:35;;;;;;;6.70;1.97;;;;;;;4.56;80.32;98912.28;5027045;28;20217;-70
2024/02/24 02:38:01;;;;;;;6.13;1.10;;;;;;;4.54;80.33;98919.44;5031542;28;20217;-70
2024/02/24 02:40:29;;;;;;;1.57;0.60;;;;;;;4.55;80.07;98913.22;5029598;28;20213;-70
2024/02/24 02:42:55;;;;;;;6.47;1.00;;;;;;;4.55;79.71;98918.50;5025537;28;20206;-70
2024/02/24 02:45:22;;;;;;;3.40;1.10;;;;;;;4.57;80.00;98911.34;5025064;28;20213;-70
2024/02/24 02:47:48;;;;;;;1.13;0.87;;;;;;;4.59;79.96;98919.97;5027588;28;20244;-70
2024/02/24 02:50:15;;;;;;;2.67;0.80;;;;;;;4.60;79.96;98918.19;5031205;28;20392;-70
2024/02/24 02:52:41;;;;;;;6.07;1.47;;;;;;;4.61;80.18;98911.97;5030835;28;20318;-69
2024/02/24 02:55:08;;;;;;;3.30;1.00;;;;;;;4.59;79.49;98912.06;5027358;28;20198;-70
2024/02/24 02:57:36;;;;;;;3.90;0.90;;;;;;;4.60;79.30;98912.91;5030720;28;20335;-70
2024/02/24 03:00:03;;;;;;;4.43;1.47;;;;;;;4.60;79.47;98921.69;5026536;28;20209;-69
2024/02/24 03:02:29;;;;;;;1.13;0.70;;;;;;;4.59;79.40;98919.97;5031438;28;20225;-70
2024/02/24 03:04:56;;;;;;;1.93;0.80;;;;;;;4.60;79.46;98924.31;5028104;28;20206;-70
2024/02/24 03:07:22;;;;;;;3.20;1.20;;;;;;;4.61;79.33;98923.38;5028871;28;20229;-70
2024/02/24 03:09:49;;;;;;;1.03;0.70;;;;;;;4.61;79.76;98922.53;5035336;28;20210;-70
2024/02/24 03:12:16;;;;;;;2.90;0.80;;;;;;;4.60;79.51;98921.69;5031966;28;20236;-68
2024/02/24 03:14:43;;;;;;;2.73;0.80;;;;;;;4.64;79.23;98933.72;5037588;28;20210;-70
2024/02/24 03:17:10;;;;;;;1.77;0.70;;;;;;;4.63;79.12;98929.38;5034711;28;20749;-70
2024/02/24 03:19:38;;;;;;;3.17;0.80;;;;;;;4.65;79.08;98939.84;5037793;28;20210;-70
2024/02/24 03:22:05;;;;;;;2.67;0.80;;;;;;;4.68;79.12;98942.25;5032985;28;20215;-70
2024/02/24 03:24:31;;;;;;;3.57;1.20;;;;;;;4.69;79.20;98936.88;5025114;28;20211;-70
2024/02/24 03:26:58;;;;;;;3.47;1.47;;;;;;;4.69;79.35;98946.56;5024104;28;20233;-69
2024/02/24 03:29:24;;;;;;;2.83;0.70;;;;;;;4.68;79.20;98945.72;5023809;28;20207;-70
2024/02/24 03:31:52;;;;;;;1.47;1.17;;;;;;;4.70;79.31;98948.25;5032445;28;20234;-70
2024/02/24 03:34:18;;;;;;;2.77;0.83;;;;;;;4.68;79.46;98951.00;5021990;28;20209;-70
2024/02/24 03:36:45;;;;;;;3.80;0.80;;;;;;;4.67;79.49;98951.94;5033384;28;20203;-69
2024/02/24 03:39:11;;;;;;;5.30;0.80;;;;;;;4.68;79.60;98951.00;5025288;28;20389;-70
2024/02/24 03:41:37;;;;;;;3.27;0.97;;;;;;;4.67;79.53;98943.19;5023542;28;20206;-70
2024/02/24 03:44:04;;;;;;;1.53;0.80;;;;;;;4.66;79.57;98952.06;5025402;28;20578;-69
2024/02/24 03:46:31;;;;;;;3.17;0.77;;;;;;;4.63;79.46;98944.38;5030759;28;20241;-70
2024/02/24 03:48:58;;;;;;;3.93;0.80;;;;;;;4.66;79.53;98950.25;5026501;28;20755;-69
2024/02/24 03:51:25;;;;;;;3.17;1.03;;;;;;;4.66;79.40;98952.88;5027021;28;20724;-70
2024/02/24 03:53:51;;;;;;;3.87;1.37;;;;;;;4.68;79.09;98955.44;5023325;28;20217;-70
2024/02/24 03:56:18;;;;;;;3.43;1.30;;;;;;;4.67;79.01;98954.59;5022575;28;20218;-70
2024/02/24 03:58:45;;;;;;;3.00;0.90;;;;;;;4.66;79.07;98952.06;5025489;28;20229;-70
2024/02/24 04:01:11;;;;;;;2.77;0.80;;;;;;;4.66;78.92;98955.53;5026854;28;20694;-70
2024/02/24 04:03:38;;;;;;;1.77;0.90;;;;;;;4.70;79.01;98964.09;5028362;28;20206;-70
2024/02/24 04:06:06;;;;;;;1.87;0.60;;;;;;;4.69;78.96;98957.13;5028475;28;20214;-70
2024/02/24 04:08:33;;;;;;;2.27;0.80;;;;;;;4.67;78.84;98965.13;5029598;28;20230;-70
2024/02/24 04:10:59;;;;;;;1.47;0.73;;;;;;;4.68;78.74;98966.81;5029386;28;20217;-70
2024/02/24 04:13:26;;;;;;;3.93;0.80;;;;;;;4.67;78.84;98964.28;5026287;28;20222;-70
2024/02/24 04:15:52;;;;;;;2.80;0.90;;;;;;;4.68;78.55;98969.47;5027637;28;20206;-70
2024/02/24 04:18:19;;;;;;;3.17;1.10;;;;;;;4.66;78.73;98973.16;5025896;28;20230;-69
2024/02/24 04:20:47;;;;;;;1.80;0.77;;;;;;;4.60;79.11;98977.03;5030329;28;20346;-70
2024/02/24 04:23:15;;;;;;;2.33;0.83;;;;;;;4.61;78.97;98983.16;5025028;28;20374;-70
2024/02/24 04:25:41;;;;;;;3.03;1.17;;;;;;;4.57;79.05;98966.69;5032691;28;20217;-70
2024/02/24 04:28:08;;;;;;;2.77;0.70;;;;;;;4.54;79.47;98974.81;5027599;28;20230;-70
2024/02/24 04:30:35;;;;;;;2.53;0.70;;;;;;;4.54;79.34;98983.56;5026428;28;20639;-70
2024/02/24 04:33:01;;;;;;;3.30;0.90;;;;;;;4.51;79.25;98982.91;5024145;28;20222;-70
2024/02/24 04:35:28;;;;;;;2.70;1.03;;;;;;;4.52;79.79;98979.31;5025999;28;20206;-70
2024/02/24 04:37:54;;;;;;;2.77;1.07;;;;;;;4.54;79.68;98965.09;5027901;28;20226;-70
2024/02/24 04:40:22;;;;;;;1.83;1.00;;;;;;;4.54;79.61;98967.72;5031170;28;20202;-70
2024/02/24 04:42:49;;;;;;;4.10;0.90;;;;;;;4.53;79.76;98978.38;5025674;28;20198;-70
2024/02/24 04:45:15;;;;;;;6.50;1.10;;;;;;;4.49;79.90;98982.16;5026625;28;20249;-70
2024/02/24 04:47:42;;;;;;;4.00;1.20;;;;;;;4.49;80.15;98985.63;5028399;28;20288;-70
2024/02/24 04:50:09;;;;;;;2.67;1.30;;;;;;;4.43;80.07;98987.84;5023579;28;20213;-70
2024/02/24 04:52:35;;;;;;;4.83;1.97;;;;;;;4.41;80.34;98998.47;5026960;28;20226;-70
2024/02/24 04:55:01;;;;;;;3.90;1.20;;;;;;;4.40;80.29;98994.16;5026788;28;20217;-70
2024/02/24 04:57:29;;;;;;;2.53;1.13;;;;;;;4.39;80.42;98989.81;5026566;28;20644;-70
2024/02/24 04:59:55;;;;;;;1.07;0.97;;;;;;;4.38;80.41;98989.91;5029716;28;20209;-70
2024/02/24 05:02:22;;;;;;;3.27;0.70;;;;;;;4.35;80.76;98998.88;5021391;28;20218;-70
2024/02/24 05:04:48;;;;;;;3.17;0.97;;;;;;;4.34;80.61;98994.53;5022317;28;20234;-70
2024/02/24 05:07:15;;;;;;;4.07;1.10;;;;;;;4.28;81.12;99000.22;5025950;28;20223;-70
2024/02/24 05:09:41;;;;;;;4.40;0.80;;;;;;;4.23;80.98;98993.53;5029343;28;20206;-70
2024/02/24 05:12:08;;;;;;;3.97;0.90;;;;;;;4.23;81.60;99002.28;5023257;28;20233;-70
2024/02/24 05:14:37;;;;;;;3.47;1.00;;;;;;;4.18;81.32;99005.22;5030615;28;20210;-70
2024/02/24 05:17:04;;;;;;;2.07;0.87;;;;;;;4.16;81.90;99004.47;5025888;28;20241;-70
2024/02/24 05:19:32;;;;;;;3.10;1.20;;;;;;;4.18;82.09;98999.94;5024838;28;20222;-70
2024/02/24 05:21:58;;;;;;;4.63;1.73;;;;;;;4.16;81.86;99007.09;5024304;28;20209;-70
2024/02/24 05:24:24;;;;;;;2.20;1.00;;;;;;;4.15;81.74;99009.81;5020574;28;20203;-70
2024/02/24 05:26:51;;;;;;;2.40;1.00;;;;;;;4.13;82.11;99009.06;5022243;28;20580;-70
2024/02/24 05:29:17;;;;;;;7.30;1.30;;;;;;;4.10;82.19;99011.94;5021866;28;20588;-70
2024/02/24 05:31:45;;;;;;;4.30;1.00;;;;;;;4.09;82.71;99016.34;5028125;28;20690;-69
2024/02/24 05:34:12;;;;;;;1.27;0.77;;;;;;;4.05;82.75;99025.38;5017327;28;20678;-70
2024/02/24 05:36:38;;;;;;;3.20;0.93;;;;;;;4.07;82.90;99014.75;5028364;28;20230;-70
2024/02/24 05:39:05;;;;;;;3.70;1.17;;;;;;;4.09;83.32;99023.41;5023096;28;20210;-70
2024/02/24 05:41:31;;;;;;;5.77;1.43;;;;;;;4.07;82.70;99027.91;5024700;28;20302;-68
2024/02/24 05:43:57;;;;;;;2.83;1.27;;;;;;;4.01;83.65;99029.13;5029966;28;20402;-70
2024/02/24 05:46:24;;;;;;;3.37;2.33;;;;;;;4.03;83.60;99034.31;5022790;28;20211;-70
2024/02/24 05:48:52;;;;;;;3.10;1.30;;;;;;;4.04;83.26;99039.50;5026983;28;20222;-70
2024/02/24 05:51:21;;;;;;;4.93;1.20;;;;;;;4.07;83.60;99033.19;5018480;28;20207;-70
2024/02/24 05:53:47;;;;;;;3.50;1.10;;;;;;;4.08;83.35;99042.78;5027452;28;20222;-69
2024/02/24 05:56:14;;;;;;;2.63;0.83;;;;;;;4.06;83.46;99047.31;5019608;28;20206;-69
2024/02/24 05:58:40;;;;;;;1.80;0.93;;;;;;;4.05;83.11;99046.44;5026264;28;20697;-70
2024/02/24 06:01:07;;;;;;;5.40;1.10;;;;;;;4.03;83.52;99056.25;5026009;28;20203;-70
2024/02/24 06:03:33;;;;;;;4.67;1.30;;;;;;;4.06;83.66;99066.59;5030831;28;20202;-70
2024/02/24 06:06:01;;;;;;;1.90;1.10;;;;;;;4.05;83.71;99062.25;5032111;28;20207;-70
2024/02/24 06:08:27;;;;;;;3.00;1.40;;;;;;;4.07;83.86;99072.72;5031108;28;20237;-70
2024/02/24 06:10:54;;;;;;;4.33;2.37;;;;;;;4.08;83.82;99062.06;5022710;28;20205;-68
2024/02/24 06:13:20;;;;;;;2.27;1.10;;;;;;;4.08;84.04;99066.50;5022770;28;20225;-70
2024/02/24 06:15:47;;;;;;;3.73;1.20;;;;;;;4.13;83.30;99077.56;5028022;28;20209;-70
2024/02/24 06:18:15;;;;;;;2.60;1.00;;;;;;;4.13;83.74;99072.31;5028326;28;20230;-69
2024/02/24 06:20:41;;;;;;;4.60;1.13;;;;;;;4.13;83.46;99077.56;5018470;28;20206;-70
2024/02/24 06:23:09;;;;;;;2.87;1.43;;;;;;;4.12;83.47;99075.91;5019967;28;20323;-70
2024/02/24 06:25:36;;;;;;;3.63;1.17;;;;;;;4.16;83.30;99083.50;5023408;28;20205;-69
2024/02/24 06:28:02;;;;;;;2.47;1.23;;;;;;;4.15;83.12;99073.91;5023150;28;20218;-70
2024/02/24 06:30:29;;;;;;;2.30;0.90;;;;;;;4.19;83.76;99080.69;5022458;28;20214;-70
2024/02/24 06:32:55;;;;;;;3.50;1.10;;;;;;;4.22;83.40;99090.19;5024629;28;20701;-70
2024/02/24 06:35:21;;;;;;;2.63;1.20;;;;;;;4.24;83.17;99098.84;5026488;28;20207;-69
2024/02/24 06:37:48;;;;;;;4.73;1.20;;;;;;;4.24;83.67;99098.00;5028774;28;20225;-70
2024/02/24 06:40:16;;;;;;;2.20;1.00;;;;;;;4.27;83.43;99103.94;5024585;28;20213;-70
2024/02/24 06:42:42;;;;;;;2.67;1.20;;;;;;;4.31;83.64;99109.84;5021908;28;20229;-70
2024/02/24 06:45:09;;;;;;;2.73;1.40;;;;;;;4.35;83.76;99112.19;5023907;28;20202;-69
2024/02/24 06:47:36;;;;;;;4.40;2.17;;;;;;;4.33;84.08;99111.44;5026867;28;20233;-70
2024/02/24 06:50:02;;;;;;;3.47;1.80;;;;;;;4.34;84.07;99110.50;5028098;28;20206;-70
2024/02/24 06:52:29;;;;;;;2.37;2.03;;;;;;;4.36;83.96;99103.34;5028740;28;20197;-70
2024/02/24 06:54:56;;;;;;;4.83;1.10;;;;;;;4.36;83.88;99110.41;5022878;28;20233;-70
2024/02/24 06:57:24;;;;;;;3.57;1.10;;;;;;;4.40;83.90;99122.47;5021810;28;20230;-70
2024/02/24 06:59:50;;;;;;;2.03;1.13;;;;;;;4.41;84.31;99121.53;5022612;28;20213;-70
2024/02/24 07:02:16;;;;;;;4.47;1.30;;;;;;;4.47;83.95;99121.16;5022904;28;20210;-69
2024/02/24 07:04:43;;;;;;;1.77;1.20;;;;;;;4.44;84.41;99122.19;5026235;28;20210;-70
2024/02/24 07:07:10;;;;;;;3.00;1.50;;;;;;;4.46;84.61;99116.81;5021684;28;20736;-70
2024/02/24 07:09:36;;;;;;;2.77;1.10;;;;;;;4.48;84.79;99125.44;5020013;28;20218;-70
2024/02/24 07:12:03;;;;;;;3.40;1.00;;;;;;;4.53;84.52;99126.00;5021576;28;20210;-70
2024/02/24 07:14:33;;;;;;;4.70;1.30;;;;;;;4.58;84.02;99123.09;5019282;28;20203;-70
2024/02/24 07:16:59;;;;;;;4.83;1.70;;;;;;;4.59;84.24;99125.63;5025577;28;20222;-70
2024/02/24 07:19:26;;;;;;;3.27;1.27;;;;;;;4.61;83.96;99122.91;5018694;28;20215;-70
2024/02/24 07:21:52;;;;;;;2.70;1.30;;;;;;;4.60;84.37;99129.13;5026825;28;20248;-71
2024/02/24 07:24:19;;;;;;;4.23;1.83;;;;;;;4.66;84.06;99128.75;5023898;28;20226;-71
2024/02/24 07:26:46;;;;;;;1.23;1.13;;;;;;;4.66;83.90;99126.94;5024505;28;20210;-70
2024/02/24 07:29:12;;;;;;;1.60;1.10;;;;;;;4.65;84.25;99127.91;5023864;28;20210;-71
2024/02/24 07:31:40;;;;;;;2.03;1.20;;;;;;;4.65;84.03;99137.59;5018968;28;20218;-70
2024/02/24 07:34:06;;;;;;;3.33;1.40;;;;;;;4.67;83.80;99146.22;5029534;28;20199;-71
2024/02/24 07:36:33;;;;;;;2.40;1.03;;;;;;;4.68;84.37;99148.78;5025919;28;20203;-70
2024/02/24 07:38:59;;;;;;;2.93;1.70;;;;;;;4.72;83.91;99154.72;5031949;28;20202;-70
2024/02/24 07:41:26;;;;;;;2.97;1.73;;;;;;;4.73;83.89;99169.59;5026471;28;20207;-69
2024/02/24 07:43:52;;;;;;;2.77;1.80;;;;;;;4.71;83.73;99156.50;5033503;28;20249;-70
2024/02/24 07:46:27;;;;;;;2.80;1.20;;;;;;;4.76;83.59;99158.84;5027236;28;20237;-71
2024/02/24 07:48:56;;;;;;;3.47;1.13;;;;;;;4.77;83.51;99156.13;5029285;28;20279;-71
2024/02/24 07:51:23;;;;;;;3.67;1.50;;;;;;;4.79;83.42;99172.69;5028365;28;20583;-71
2024/02/24 07:53:49;;;;;;;2.33;1.30;;;;;;;4.80;83.51;99174.41;5026561;28;20206;-71
2024/02/24 07:56:16;;;;;;;3.70;1.20;;;;;;;4.79;84.14;99170.06;5028068;28;20207;-71
2024/02/24 07:58:43;;;;;;;3.83;1.77;;;;;;;4.83;84.20;99176.84;5032238;28;20225;-71
2024/02/24 08:01:09;;;;;;;2.43;1.30;;;;;;;4.89;84.47;99165.88;5028269;28;20588;-70
2024/02/24 08:03:36;;;;;;;2.10;1.17;;;;;;;4.99;84.51;99162.69;5023029;28;20230;-71
2024/02/24 08:06:04;;;;;;;3.50;1.40;;;;;;;5.07;83.63;99163.00;5032291;28;20204;-71
2024/02/24 08:08:33;;;;;;;3.67;1.40;;;;;;;5.16;83.46;99167.72;5025661;28;20527;-71
2024/02/24 08:11:00;;;;;;;2.90;1.17;;;;;;;5.25;83.44;99167.09;5026620;28;20211;-71
2024/02/24 08:13:26;;;;;;;2.97;1.27;;;;;;;5.32;82.94;99168.41;5028132;28;20202;-70
2024/02/24 08:15:53;;;;;;;1.77;1.10;;;;;;;5.38;82.24;99173.25;5027881;28;20202;-71
2024/02/24 08:20:48;;;;;;;3.23;2.00;;;;;;;5.57;81.76;99168.47;5062250;28;20220;-74
2024/02/24 08:23:16;;;;;;;3.53;1.40;;;;;;;5.66;81.54;99166.19;5066291;28;20312;-74
2024/02/24 08:25:42;;;;;;;2.70;1.53;;;;;;;5.80;81.43;99168.72;5069458;28;20216;-73
2024/02/24 08:28:09;;;;;;;3.57;1.53;;;;;;;5.93;80.38;99166.97;5068252;28;20217;-74
2024/02/24 08:30:35;;;;;;;3.30;1.17;;;;;;;6.06;79.12;99172.28;5061587;28;20212;-73
2024/02/24 08:33:01;;;;;;;2.10;1.30;;;;;;;6.17;77.64;99170.59;5064637;28;20197;-74
2024/02/24 08:35:28;;;;;;;2.60;1.23;;;;;;;6.24;76.58;99174.53;5065554;28;20224;-74
2024/02/24 08:37:54;;;;;;;3.57;1.27;;;;;;;6.24;76.84;99168.38;5061946;28;20224;-74
2024/02/24 08:40:22;;;;;;;4.50;2.67;;;;;;;6.26;76.99;99164.69;5065324;28;20205;-74
2024/02/24 08:42:48;;;;;;;2.30;1.40;;;;;;;6.30;76.37;99169.75;5064704;28;20205;-74
2024/02/24 08:45:15;;;;;;;1.90;1.00;;;;;;;6.26;76.26;99179.72;5064837;28;20806;-74
2024/02/24 08:47:41;;;;;;;2.67;1.17;;;;;;;6.28;75.73;99185.72;5065940;28;20259;-74
2024/02/24 08:50:08;;;;;;;1.57;0.70;;;;;;;6.31;75.45;99184.66;5060471;28;20209;-74
2024/02/24 08:52:35;;;;;;;2.13;1.07;;;;;;;6.31;76.08;99189.94;5066433;28;20562;-74
2024/02/24 08:55:01;;;;;;;0.67;0.67;;;;;;;6.37;75.10;99197.47;5063536;28;20197;-74
2024/02/24 08:57:29;;;;;;;1.67;0.77;;;;;;;6.36;74.23;99187.84;5067175;28;20239;-74
2024/02/24 08:59:56;;;;;;;2.30;1.30;;;;;;;6.35;74.37;99186.16;5067127;28;20201;-74
2024/02/24 09:02:22;;;;;;;1.40;0.70;;;;;;;6.38;74.86;99197.34;5062779;28;20274;-74
2024/02/24 09:04:48;;;;;;;1.20;0.70;;;;;;;6.46;74.33;99194.16;5064252;28;20227;-74
2024/02/24 09:07:15;;;;;;;2.23;0.83;;;;;;;6.44;74.35;99188.16;5065045;28;20235;-74
2024/02/24 09:09:41;;;;;;;1.07;0.73;;;;;;;6.47;75.15;99190.56;5063215;28;20213;-74
2024/02/24 09:12:08;;;;;;;0.93;0.73;;;;;;;6.51;74.50;99190.25;5060863;28;20532;-74
2024/02/24 09:14:36;;;;;;;1.00;0.70;;;;;;;6.55;74.34;99193.53;5060683;28;20237;-74
2024/02/24 09:17:03;;;;;;;1.87;0.87;;;;;;;6.66;75.49;99195.41;5066758;28;20215;-75
2024/02/24 09:19:30;;;;;;;0.83;0.73;;;;;;;6.68;73.25;99194.38;5067126;28;20415;-74
2024/02/24 09:21:56;;;;;;;2.20;1.03;;;;;;;6.74;74.39;99193.09;5066102;28;20208;-74
2024/02/24 09:24:22;;;;;;;3.83;1.13;;;;;;;6.81;73.83;99195.19;5067149;28;20322;-74
2024/02/24 09:26:49;;;;;;;2.63;1.03;;;;;;;6.92;72.99;99207.66;5064563;28;20208;-74
2024/02/24 09:29:16;;;;;;;1.60;0.70;;;;;;;6.93;72.93;99212.84;5067699;28;20205;-74
2024/02/24 09:31:43;;;;;;;3.00;0.90;;;;;;;6.97;72.65;99206.41;5065589;28;20258;-74
2024/02/24 09:34:10;;;;;;;1.13;0.80;;;;;;;6.95;72.47;99215.41;5066690;28;20201;-74
2024/02/24 09:39:28;;;;;;;1.77;0.80;;;;;;;7.05;71.79;99212.91;5049124;28;20214;-75
2024/02/24 09:41:59;;;;;;;1.30;0.77;;;;;;;7.11;72.60;99213.34;5046986;28;20198;-75
2024/02/24 09:44:27;;;;;;;1.67;0.83;;;;;;;7.20;71.60;99217.97;5050010;28;20747;-75
2024/02/24 09:46:56;;;;;;;0.60;0.60;;;;;;;7.30;71.56;99228.75;5046365;28;20224;-75
2024/02/24 09:51:52;;;;;;;2.43;1.00;;;;;;;7.40;70.63;99229.75;5005599;28;20222;-70
2024/02/24 09:54:19;;;;;;;0.73;0.70;;;;;;;7.46;69.52;99226.66;5007939;28;20225;-71
2024/02/24 09:56:46;;;;;;;1.03;0.80;;;;;;;7.58;69.35;99236.34;5006215;28;20388;-70
2024/02/24 09:59:13;;;;;;;1.63;1.00;;;;;;;7.65;69.76;99232.31;5006955;28;20210;-71
2024/02/24 10:01:39;;;;;;;3.70;1.10;;;;;;;7.68;70.01;99238.34;5004371;28;20320;-71
2024/02/24 10:04:07;;;;;;;4.83;1.17;;;;;;;7.71;70.04;99233.63;5009339;28;20203;-71
2024/02/24 10:06:34;;;;;;;2.87;1.10;;;;;;;7.75;69.00;99243.06;5007278;28;20238;-71
2024/02/24 10:09:01;;;;;;;2.60;1.20;;;;;;;7.77;68.18;99249.09;5010862;28;20717;-71
2024/02/24 10:11:28;;;;;;;3.13;1.07;;;;;;;7.72;68.64;99248.59;5006592;28;20715;-70
2024/02/24 10:13:55;;;;;;;2.47;0.90;;;;;;;7.71;69.12;99246.88;5005826;28;20223;-71
2024/02/24 10:16:24;;;;;;;3.07;0.90;;;;;;;7.66;69.70;99254.34;5007585;28;20207;-71
2024/02/24 10:18:50;;;;;;;2.53;1.20;;;;;;;7.66;68.89;99257.84;5013366;28;20687;-70
2024/02/24 10:21:18;;;;;;;3.67;1.27;;;;;;;7.62;70.23;99263.47;5007026;28;20598;-71
2024/02/24 10:23:46;;;;;;;5.43;1.23;;;;;;;7.62;69.56;99259.03;5001153;28;20249;-70
2024/02/24 10:26:12;;;;;;;2.30;1.60;;;;;;;7.63;69.17;99259.88;5003073;28;20212;-71
2024/02/24 10:28:41;;;;;;;4.10;1.50;;;;;;;7.60;70.31;99260.94;5007293;28;20207;-70
2024/02/24 10:31:08;;;;;;;3.23;2.07;;;;;;;7.60;70.59;99263.59;5006304;28;20602;-71
2024/02/24 10:33:35;;;;;;;2.60;1.43;;;;;;;7.64;69.78;99256.28;4997945;28;20226;-71
2024/02/24 10:36:03;;;;;;;1.73;1.23;;;;;;;7.74;69.66;99267.88;5003366;28;20206;-70
2024/02/24 10:38:34;;;;;;;2.17;1.10;;;;;;;7.71;68.83;99264.59;5005330;28;20207;-72
2024/02/24 10:41:01;;;;;;;3.17;1.67;;;;;;;7.78;70.10;99265.84;5007785;28;20226;-71
2024/02/24 10:43:28;;;;;;;3.30;1.40;;;;;;;7.86;70.66;99263.50;5004801;28;20202;-71
2024/02/24 10:45:55;;;;;;;2.00;1.23;;;;;;;7.94;70.01;99261.94;5006623;28;20211;-71
2024/02/24 10:48:22;;;;;;;3.13;1.40;;;;;;;8.01;69.98;99265.84;5004806;28;20630;-71
2024/02/24 10:50:48;;;;;;;4.20;1.30;;;;;;;8.04;69.38;99262.13;5015832;28;20283;-71
2024/02/24 10:53:18;;;;;;;5.60;1.97;;;;;;;8.13;67.63;99265.88;5017756;28;20230;-71
2024/02/24 10:55:47;;;;;;;2.93;1.27;;;;;;;8.19;67.70;99271.56;5027455;28;20221;-71
2024/02/24 10:58:18;;;;;;;3.23;1.63;;;;;;;8.18;67.16;99272.53;5023606;28;20762;-71
2024/02/24 11:00:45;;;;;;;2.30;1.00;;;;;;;8.16;66.22;99277.09;5021107;28;20249;-71
2024/02/24 11:03:12;;;;;;;2.43;1.00;;;;;;;8.15;67.66;99279.84;5020928;28;20654;-71
2024/02/24 11:05:46;;;;;;;2.83;1.43;;;;;;;8.17;67.66;99280.59;5024816;28;20637;-71
2024/02/24 11:08:34;;;;;;;2.93;1.17;;;;;;;8.24;66.79;99280.00;5027426;28;20206;-71
2024/02/24 11:11:05;;;;;;;3.23;1.00;;;;;;;8.28;66.34;99276.16;5029045;28;20816;-71
2024/02/24 11:13:33;;;;;;;1.03;0.93;;;;;;;8.34;66.52;99281.03;5025025;28;20206;-70
2024/02/24 11:15:59;;;;;;;2.90;1.40;;;;;;;8.39;66.68;99277.19;5029509;28;20209;-70
2024/02/24 11:18:53;;;;;;;1.43;0.87;;;;;;;8.51;65.17;99282.41;5021938;28;20600;-70
2024/02/24 11:21:20;;;;;;;4.10;1.50;;;;;;;8.62;66.83;99276.28;5023089;28;20222;-71
2024/02/24 11:23:48;;;;;;;3.53;1.40;;;;;;;8.79;67.30;99277.63;5021635;28;20232;-67
2024/02/24 11:26:33;;;;;;;2.60;0.93;;;;;;;8.90;64.75;99278.50;5017988;28;20296;-67
2024/02/24 11:29:05;;;;;;;2.93;0.83;;;;;;;9.01;64.05;99265.19;5032651;28;20400;-68
2024/02/24 11:31:34;;;;;;;1.33;0.80;;;;;;;9.15;63.99;99266.75;5030845;28;20320;-67
2024/02/24 11:34:06;;;;;;;3.27;1.20;;;;;;;9.39;63.61;99269.28;5033140;28;20226;-67
2024/02/24 11:36:35;;;;;;;1.93;1.03;;;;;;;9.50;60.97;99271.06;5032462;28;20316;-68
2024/02/24 11:39:03;;;;;;;1.70;0.87;;;;;;;9.60;61.35;99262.22;5030558;28;20210;-68
2024/02/24 11:41:31;;;;;;;2.47;1.20;;;;;;;9.67;61.04;99266.06;5031398;28;20218;-68
2024/02/24 11:43:57;;;;;;;1.40;0.80;;;;;;;9.74;60.38;99263.75;5034069;28;20198;-68
2024/02/24 11:46:24;;;;;;;1.97;0.63;;;;;;;9.75;60.28;99265.44;5028267;28;20210;-68
2024/02/24 11:48:54;;;;;;;2.03;0.50;;;;;;;9.75;60.15;99273.44;5034718;28;20207;-67